Time;durP1;ratioP1;P1;durP2;ratioP2;P2;SDS_P1;SDS_P2;PMS_P1;PMS_P2;Temp;Humidity;BMP_temperature;BMP_pressure;BME280_temperature;BME280_humidity;BME280_pressure;Samples;Min_cycle;Max_cycle;Signal;HPM_P1;HPM_P2
2021/10/08 00:02:07;;;;;;;0.40;0.40;;;;;;;;;;5093983;28;20399;-67
2021/10/08 00:04:35;;;;;;;0.40;0.40;;;;;;;;;;5094121;28;20193;-66
2021/10/08 00:07:01;;;;;;;0.40;0.40;;;;;;;;;;5094132;28;20420;-67
2021/10/08 00:09:30;;;;;;;0.40;0.40;;;;;;;;;;5094046;28;20167;-67
2021/10/08 00:11:57;;;;;;;0.40;0.40;;;;;;;;;;5093872;28;20405;-67
2021/10/08 00:14:26;;;;;;;0.40;0.40;;;;;;;;;;5093889;28;20201;-67
2021/10/08 00:16:52;;;;;;;0.40;0.40;;;;;;;;;;5093949;28;20647;-66
2021/10/08 00:19:18;;;;;;;0.40;0.40;;;;;;;;;;5093869;28;20170;-66
2021/10/08 00:21:44;;;;;;;0.40;0.40;;;;;;;;;;5093587;28;20408;-67
2021/10/08 00:24:10;;;;;;;0.40;0.40;;;;;;;;;;5093685;28;20636;-67
2021/10/08 00:26:40;;;;;;;0.40;0.40;;;;;;;;;;5093746;28;20413;-67
2021/10/08 00:29:06;;;;;;;0.40;0.40;;;;;;;;;;5093687;28;20444;-67
2021/10/08 00:31:32;;;;;;;0.40;0.40;;;;;;;;;;5093520;28;20201;-66
2021/10/08 00:33:58;;;;;;;0.40;0.40;;;;;;;;;;5075572;28;20400;-67
2021/10/08 00:36:23;;;;;;;0.40;0.40;;;;;;;;;;5093406;28;20955;-67
2021/10/08 00:38:49;;;;;;;0.40;0.40;;;;;;;;;;5093670;28;20401;-67
2021/10/08 00:41:16;;;;;;;0.40;0.40;;;;;;;;;;5093285;28;20962;-67
2021/10/08 00:43:42;;;;;;;0.40;0.40;;;;;;;;;;5092588;28;20181;-67
2021/10/08 00:46:07;;;;;;;0.40;0.40;;;;;;;;;;5093317;28;20199;-67
2021/10/08 00:48:34;;;;;;;0.50;0.50;;;;;;;;;;5093231;28;20167;-67
2021/10/08 00:50:59;;;;;;;0.30;0.30;;;;;;;;;;5092904;28;20405;-67
2021/10/08 00:53:25;;;;;;;0.40;0.40;;;;;;;;;;5093162;28;20174;-67
2021/10/08 00:55:52;;;;;;;0.40;0.40;;;;;;;;;;5074582;28;20479;-67
2021/10/08 00:58:19;;;;;;;0.40;0.40;;;;;;;;;;5093188;28;20440;-67
2021/10/08 01:00:46;;;;;;;0.50;0.50;;;;;;;;;;5092908;28;20171;-67
2021/10/08 01:03:12;;;;;;;0.40;0.40;;;;;;;;;;5092988;28;20166;-67
2021/10/08 01:05:39;;;;;;;0.40;0.40;;;;;;;;;;5092922;28;20182;-67
2021/10/08 01:08:05;;;;;;;0.40;0.40;;;;;;;;;;5092880;28;20415;-67
2021/10/08 01:10:31;;;;;;;0.40;0.40;;;;;;;;;;5074638;28;20239;-67
2021/10/08 01:12:58;;;;;;;0.40;0.40;;;;;;;;;;5092817;28;20170;-67
2021/10/08 01:15:24;;;;;;;0.40;0.40;;;;;;;;;;5092597;28;20213;-67
2021/10/08 01:17:51;;;;;;;0.40;0.40;;;;;;;;;;5092725;28;20253;-67
2021/10/08 01:20:17;;;;;;;0.40;0.40;;;;;;;;;;5074161;28;20405;-66
2021/10/08 01:22:43;;;;;;;0.40;0.40;;;;;;;;;;5092671;28;20178;-66
2021/10/08 01:25:09;;;;;;;0.40;0.40;;;;;;;;;;5092448;28;20439;-66
2021/10/08 01:27:35;;;;;;;0.40;0.40;;;;;;;;;;5092617;28;20746;-67
2021/10/08 01:30:02;;;;;;;0.40;0.40;;;;;;;;;;5092426;28;20413;-66
2021/10/08 01:32:29;;;;;;;0.40;0.40;;;;;;;;;;5092391;28;20171;-66
2021/10/08 01:34:55;;;;;;;0.40;0.40;;;;;;;;;;5092112;28;20221;-66
2021/10/08 01:37:21;;;;;;;0.40;0.40;;;;;;;;;;5092450;28;20178;-67
2021/10/08 01:39:47;;;;;;;0.40;0.40;;;;;;;;;;5092338;28;20403;-66
2021/10/08 01:42:13;;;;;;;0.40;0.40;;;;;;;;;;5092068;28;20162;-66
2021/10/08 01:44:39;;;;;;;0.40;0.40;;;;;;;;;;5092187;28;20227;-67
2021/10/08 01:47:06;;;;;;;0.50;0.50;;;;;;;;;;5073924;28;20427;-67
2021/10/08 01:49:32;;;;;;;0.40;0.40;;;;;;;;;;5092254;28;20170;-67
2021/10/08 01:51:59;;;;;;;0.40;0.40;;;;;;;;;;5091938;28;20186;-67
2021/10/08 01:54:25;;;;;;;0.40;0.40;;;;;;;;;;5091481;28;20198;-66
2021/10/08 01:56:51;;;;;;;0.40;0.40;;;;;;;;;;5092095;28;20258;-66
2021/10/08 01:59:17;;;;;;;0.40;0.40;;;;;;;;;;5092065;28;20407;-66
2021/10/08 02:01:43;;;;;;;0.40;0.40;;;;;;;;;;5091727;28;20408;-66
2021/10/08 02:04:09;;;;;;;0.40;0.40;;;;;;;;;;5091921;28;20405;-66
2021/10/08 02:06:35;;;;;;;0.40;0.40;;;;;;;;;;5091902;28;20284;-67
2021/10/08 02:09:04;;;;;;;0.40;0.40;;;;;;;;;;5091897;28;20742;-67
2021/10/08 02:11:30;;;;;;;0.40;0.40;;;;;;;;;;5073560;28;20188;-66
2021/10/08 02:13:56;;;;;;;0.30;0.30;;;;;;;;;;5091837;28;20178;-67
2021/10/08 02:16:22;;;;;;;0.30;0.30;;;;;;;;;;5091562;28;20432;-67
2021/10/08 02:18:49;;;;;;;0.40;0.40;;;;;;;;;;5091836;28;20419;-67
2021/10/08 02:21:15;;;;;;;0.40;0.40;;;;;;;;;;5091595;28;20404;-67
2021/10/08 02:23:41;;;;;;;0.40;0.40;;;;;;;;;;5091770;28;20586;-67
2021/10/08 02:26:07;;;;;;;0.40;0.40;;;;;;;;;;5091721;28;20194;-67
2021/10/08 02:28:33;;;;;;;0.40;0.40;;;;;;;;;;5091768;28;20598;-67
2021/10/08 02:30:59;;;;;;;0.40;0.40;;;;;;;;;;5091403;28;20194;-66
2021/10/08 02:33:25;;;;;;;0.40;0.40;;;;;;;;;;5091577;28;20890;-66
2021/10/08 02:35:51;;;;;;;0.40;0.40;;;;;;;;;;5091430;28;20258;-67
2021/10/08 02:38:17;;;;;;;0.40;0.40;;;;;;;;;;5091606;28;20756;-67
2021/10/08 02:40:44;;;;;;;0.40;0.40;;;;;;;;;;5091396;28;20442;-67
2021/10/08 02:43:10;;;;;;;0.40;0.40;;;;;;;;;;5091573;28;20171;-67
2021/10/08 02:45:36;;;;;;;0.40;0.40;;;;;;;;;;5091310;28;20591;-66
2021/10/08 02:48:02;;;;;;;0.40;0.40;;;;;;;;;;5091489;28;20181;-67
2021/10/08 02:50:28;;;;;;;0.40;0.40;;;;;;;;;;5091304;28;20415;-66
2021/10/08 02:52:54;;;;;;;0.40;0.40;;;;;;;;;;5091476;28;20470;-67
2021/10/08 02:55:20;;;;;;;0.40;0.40;;;;;;;;;;5091258;28;20210;-67
2021/10/08 02:57:46;;;;;;;0.40;0.40;;;;;;;;;;5091429;28;20488;-67
2021/10/08 03:00:12;;;;;;;0.40;0.40;;;;;;;;;;5091026;28;20188;-67
2021/10/08 03:02:39;;;;;;;0.40;0.40;;;;;;;;;;5091340;28;20414;-67
2021/10/08 03:05:05;;;;;;;0.40;0.40;;;;;;;;;;5091294;28;20212;-67
2021/10/08 03:07:31;;;;;;;0.40;0.40;;;;;;;;;;5093696;28;20199;-67
2021/10/08 03:09:57;;;;;;;0.40;0.40;;;;;;;;;;5095225;28;20169;-66
2021/10/08 03:12:23;;;;;;;0.30;0.30;;;;;;;;;;5094978;28;20404;-67
2021/10/08 03:14:49;;;;;;;0.40;0.40;;;;;;;;;;5076628;28;20837;-67
2021/10/08 03:17:15;;;;;;;0.40;0.40;;;;;;;;;;5094949;28;20492;-67
2021/10/08 03:19:41;;;;;;;0.40;0.40;;;;;;;;;;5076866;28;20415;-66
2021/10/08 03:22:07;;;;;;;0.40;0.40;;;;;;;;;;5076490;28;20182;-67
2021/10/08 03:24:33;;;;;;;0.40;0.40;;;;;;;;;;5094913;28;20236;-66
2021/10/08 03:26:59;;;;;;;0.40;0.40;;;;;;;;;;5094863;28;20219;-67
2021/10/08 03:29:26;;;;;;;0.40;0.40;;;;;;;;;;5076079;28;20448;-67
2021/10/08 03:31:52;;;;;;;0.40;0.40;;;;;;;;;;5094729;28;20178;-67
2021/10/08 03:34:18;;;;;;;0.40;0.40;;;;;;;;;;5094453;28;20208;-67
2021/10/08 03:36:45;;;;;;;0.40;0.40;;;;;;;;;;5094773;28;20544;-67
2021/10/08 03:39:14;;;;;;;0.40;0.40;;;;;;;;;;5094670;28;20403;-67
2021/10/08 03:41:42;;;;;;;0.40;0.40;;;;;;;;;;5094455;28;20652;-66
2021/10/08 03:44:09;;;;;;;0.40;0.40;;;;;;;;;;5094596;28;20170;-66
2021/10/08 03:46:42;;;;;;;0.40;0.40;;;;;;;;;;5094566;28;20193;-67
2021/10/08 03:51:35;;;;;;;0.40;0.40;;;;;;;;;;5094344;28;20182;-67
2021/10/08 03:54:01;;;;;;;0.40;0.40;;;;;;;;;;5094187;28;20187;-66
2021/10/08 03:56:28;;;;;;;0.40;0.40;;;;;;;;;;5094293;28;20617;-66
2021/10/08 03:58:54;;;;;;;0.40;0.40;;;;;;;;;;5094293;28;20162;-66
2021/10/08 04:01:20;;;;;;;0.30;0.30;;;;;;;;;;5093895;28;20181;-67
2021/10/08 04:03:46;;;;;;;0.40;0.40;;;;;;;;;;5094235;28;20166;-67
2021/10/08 04:06:12;;;;;;;0.40;0.40;;;;;;;;;;5094057;28;20425;-66
2021/10/08 04:08:38;;;;;;;0.30;0.30;;;;;;;;;;5094038;28;20195;-67
2021/10/08 04:11:04;;;;;;;0.40;0.40;;;;;;;;;;5093817;28;20175;-67
2021/10/08 04:13:30;;;;;;;0.30;0.30;;;;;;;;;;5093921;28;20411;-66
2021/10/08 04:15:56;;;;;;;0.40;0.40;;;;;;;;;;5093816;28;20210;-66
2021/10/08 04:18:22;;;;;;;0.40;0.40;;;;;;;;;;5092682;28;20184;-66
2021/10/08 04:20:48;;;;;;;0.40;0.40;;;;;;;;;;5093688;28;20400;-66
2021/10/08 04:23:14;;;;;;;0.40;0.40;;;;;;;;;;5093690;28;20676;-67
2021/10/08 04:25:40;;;;;;;0.40;0.40;;;;;;;;;;5093715;28;20228;-67
2021/10/08 04:28:07;;;;;;;0.40;0.40;;;;;;;;;;5092403;28;20799;-66
2021/10/08 04:30:32;;;;;;;0.40;0.40;;;;;;;;;;5093133;28;20207;-66
2021/10/08 04:32:59;;;;;;;0.40;0.40;;;;;;;;;;5084224;28;20277;-67
2021/10/08 04:35:25;;;;;;;0.40;0.40;;;;;;;;;;5073023;28;20289;-66
2021/10/08 04:37:51;;;;;;;0.40;0.40;;;;;;;;;;5074134;28;20482;-67
2021/10/08 04:40:17;;;;;;;0.40;0.40;;;;;;;;;;5093241;28;20170;-67
2021/10/08 04:42:43;;;;;;;0.40;0.40;;;;;;;;;;5093378;28;20407;-66
2021/10/08 04:45:09;;;;;;;0.40;0.40;;;;;;;;;;5093227;28;20436;-66
2021/10/08 04:47:35;;;;;;;0.40;0.40;;;;;;;;;;5075075;28;20503;-66
2021/10/08 04:50:01;;;;;;;0.40;0.40;;;;;;;;;;5077164;28;20207;-67
2021/10/08 04:52:27;;;;;;;0.40;0.40;;;;;;;;;;5075241;28;20429;-66
2021/10/08 04:54:53;;;;;;;0.40;0.40;;;;;;;;;;5092792;28;20553;-67
2021/10/08 04:57:19;;;;;;;0.40;0.40;;;;;;;;;;5092729;28;20438;-67
2021/10/08 04:59:45;;;;;;;0.40;0.40;;;;;;;;;;5075100;28;20397;-67
2021/10/08 05:02:11;;;;;;;0.40;0.40;;;;;;;;;;5092266;28;20174;-66
2021/10/08 05:04:37;;;;;;;0.30;0.30;;;;;;;;;;5092781;28;20431;-66
2021/10/08 05:07:03;;;;;;;0.40;0.40;;;;;;;;;;5091899;28;20424;-67
2021/10/08 05:09:29;;;;;;;0.40;0.40;;;;;;;;;;5092655;28;20179;-67
2021/10/08 05:11:55;;;;;;;0.40;0.40;;;;;;;;;;5092254;28;20183;-66
2021/10/08 05:14:21;;;;;;;0.40;0.40;;;;;;;;;;5091490;28;20629;-67
2021/10/08 05:16:47;;;;;;;0.40;0.40;;;;;;;;;;5092094;28;20408;-67
2021/10/08 05:19:13;;;;;;;0.40;0.40;;;;;;;;;;5092609;28;20548;-67
2021/10/08 05:21:39;;;;;;;0.40;0.40;;;;;;;;;;5092074;28;20416;-67
2021/10/08 05:24:05;;;;;;;0.40;0.40;;;;;;;;;;5084383;28;20420;-67
2021/10/08 05:26:31;;;;;;;0.40;0.40;;;;;;;;;;5087877;28;20436;-67
2021/10/08 05:28:57;;;;;;;0.30;0.30;;;;;;;;;;5089930;28;20166;-66
2021/10/08 05:31:23;;;;;;;0.40;0.40;;;;;;;;;;5071788;28;20187;-67
2021/10/08 05:33:49;;;;;;;0.40;0.40;;;;;;;;;;5054143;28;20419;-67
2021/10/08 05:36:15;;;;;;;0.40;0.40;;;;;;;;;;5071739;28;20215;-67
2021/10/08 05:38:41;;;;;;;0.40;0.40;;;;;;;;;;5078140;28;20405;-67
2021/10/08 05:41:07;;;;;;;0.40;0.40;;;;;;;;;;5092195;28;20400;-67
2021/10/08 05:43:33;;;;;;;0.40;0.40;;;;;;;;;;5091282;28;20952;-67
2021/10/08 05:45:59;;;;;;;0.40;0.40;;;;;;;;;;5091223;28;20449;-67
2021/10/08 05:48:25;;;;;;;0.50;0.50;;;;;;;;;;5091866;28;20439;-67
2021/10/08 05:50:51;;;;;;;0.40;0.40;;;;;;;;;;5090695;28;20182;-67
2021/10/08 05:53:17;;;;;;;0.40;0.40;;;;;;;;;;5073894;28;20259;-67
2021/10/08 05:55:43;;;;;;;0.40;0.40;;;;;;;;;;5091567;28;20324;-67
2021/10/08 05:58:09;;;;;;;0.40;0.40;;;;;;;;;;5091466;28;20203;-67
2021/10/08 06:00:35;;;;;;;0.50;0.50;;;;;;;;;;5091683;28;20914;-67
2021/10/08 06:03:02;;;;;;;0.40;0.40;;;;;;;;;;5091287;28;20423;-65
2021/10/08 06:05:28;;;;;;;0.40;0.40;;;;;;;;;;5090781;28;20206;-66
2021/10/08 06:07:54;;;;;;;0.40;0.40;;;;;;;;;;5091732;28;20657;-66
2021/10/08 06:10:20;;;;;;;0.40;0.40;;;;;;;;;;5091626;28;20180;-67
2021/10/08 06:12:46;;;;;;;0.40;0.40;;;;;;;;;;5091619;28;20404;-67
2021/10/08 06:15:12;;;;;;;0.40;0.40;;;;;;;;;;5071594;28;20490;-67
2021/10/08 06:17:38;;;;;;;0.40;0.40;;;;;;;;;;5075490;28;20182;-67
2021/10/08 06:20:05;;;;;;;0.40;0.40;;;;;;;;;;5091572;28;20178;-67
2021/10/08 06:22:31;;;;;;;0.30;0.30;;;;;;;;;;5073096;28;20494;-67
2021/10/08 06:24:57;;;;;;;0.40;0.40;;;;;;;;;;5072165;28;20705;-67
2021/10/08 06:27:25;;;;;;;0.40;0.40;;;;;;;;;;5091112;28;20185;-67
2021/10/08 06:29:51;;;;;;;0.40;0.40;;;;;;;;;;5091498;28;20567;-66
2021/10/08 06:32:16;;;;;;;0.30;0.30;;;;;;;;;;5091046;28;20177;-66
2021/10/08 06:34:42;;;;;;;0.40;0.40;;;;;;;;;;5090168;28;21035;-67
2021/10/08 06:37:08;;;;;;;0.40;0.40;;;;;;;;;;5072338;28;20778;-67
2021/10/08 06:39:34;;;;;;;0.40;0.40;;;;;;;;;;5089886;28;20973;-66
2021/10/08 06:42:00;;;;;;;0.40;0.40;;;;;;;;;;5092569;28;20507;-66
2021/10/08 06:44:26;;;;;;;0.40;0.40;;;;;;;;;;5095161;28;20416;-67
2021/10/08 06:46:52;;;;;;;0.40;0.40;;;;;;;;;;5095468;28;20412;-67
2021/10/08 06:49:18;;;;;;;0.40;0.40;;;;;;;;;;5094916;28;20491;-66
2021/10/08 06:51:44;;;;;;;0.38;0.38;;;;;;;;;;5095261;28;20414;-67
2021/10/08 06:54:10;;;;;;;0.40;0.40;;;;;;;;;;5095328;28;20200;-67
2021/10/08 06:56:36;;;;;;;0.40;0.40;;;;;;;;;;5075378;28;20847;-67
2021/10/08 06:59:02;;;;;;;0.40;0.40;;;;;;;;;;5094235;28;20957;-66
2021/10/08 07:01:28;;;;;;;0.40;0.40;;;;;;;;;;5094612;28;20764;-67
2021/10/08 07:03:54;;;;;;;0.40;0.40;;;;;;;;;;5093840;28;20768;-67
2021/10/08 07:06:19;;;;;;;0.33;0.33;;;;;;;;;;5095127;28;20465;-67
2021/10/08 07:08:45;;;;;;;0.40;0.40;;;;;;;;;;5095196;28;20400;-67
2021/10/08 07:11:11;;;;;;;0.40;0.40;;;;;;;;;;5093302;28;20415;-67
2021/10/08 07:13:37;;;;;;;0.30;0.30;;;;;;;;;;5095228;28;20415;-67
2021/10/08 07:16:04;;;;;;;0.40;0.40;;;;;;;;;;5094924;28;20546;-67
2021/10/08 07:18:37;;;;;;;0.40;0.40;;;;;;;;;;5093902;28;20173;-67
2021/10/08 07:21:04;;;;;;;0.40;0.40;;;;;;;;;;5094581;28;20185;-66
2021/10/08 07:23:30;;;;;;;0.30;0.30;;;;;;;;;;5094752;28;20680;-67
2021/10/08 07:25:56;;;;;;;0.40;0.40;;;;;;;;;;5094826;28;20569;-67
2021/10/08 07:28:22;;;;;;;0.40;0.40;;;;;;;;;;5094463;28;20166;-67
2021/10/08 07:30:48;;;;;;;0.37;0.37;;;;;;;;;;5094227;28;20247;-67
2021/10/08 07:33:14;;;;;;;0.37;0.37;;;;;;;;;;5092986;28;20500;-66
2021/10/08 07:35:40;;;;;;;0.40;0.40;;;;;;;;;;5094139;28;20474;-67
2021/10/08 07:38:06;;;;;;;0.40;0.40;;;;;;;;;;5094683;28;20465;-67
2021/10/08 07:40:32;;;;;;;0.40;0.40;;;;;;;;;;5114250;28;20430;-67
2021/10/08 07:42:58;;;;;;;0.40;0.38;;;;;;;;;;5114252;28;20392;-67
2021/10/08 07:45:24;;;;;;;0.40;0.40;;;;;;;;;;5114646;28;20193;-67
2021/10/08 07:47:50;;;;;;;0.40;0.40;;;;;;;;;;5114664;28;20411;-67
2021/10/08 07:50:16;;;;;;;0.40;0.40;;;;;;;;;;5114483;28;20536;-67
2021/10/08 07:52:42;;;;;;;0.40;0.40;;;;;;;;;;5114470;28;20408;-67
2021/10/08 07:55:09;;;;;;;0.40;0.40;;;;;;;;;;5113926;28;20455;-67
2021/10/08 07:57:39;;;;;;;0.40;0.40;;;;;;;;;;5114502;28;20170;-66
2021/10/08 08:00:06;;;;;;;0.40;0.40;;;;;;;;;;5114343;28;20183;-67
2021/10/08 08:02:32;;;;;;;0.40;0.40;;;;;;;;;;5096119;28;20288;-67
2021/10/08 08:04:58;;;;;;;0.40;0.40;;;;;;;;;;5114018;28;20216;-67
2021/10/08 08:07:24;;;;;;;0.40;0.40;;;;;;;;;;5114368;28;20403;-67
2021/10/08 08:09:50;;;;;;;0.40;0.40;;;;;;;;;;5114673;28;20932;-67
2021/10/08 08:12:16;;;;;;;0.40;0.40;;;;;;;;;;5114028;28;20260;-67
2021/10/08 08:14:42;;;;;;;0.40;0.40;;;;;;;;;;5114013;28;20209;-67
2021/10/08 08:17:08;;;;;;;0.40;0.40;;;;;;;;;;5112348;28;20166;-67
2021/10/08 08:19:34;;;;;;;0.40;0.40;;;;;;;;;;5113955;28;20766;-67
2021/10/08 08:22:00;;;;;;;0.40;0.40;;;;;;;;;;5113769;28;20169;-67
2021/10/08 08:24:27;;;;;;;0.40;0.35;;;;;;;;;;5113910;28;20486;-67
2021/10/08 08:26:53;;;;;;;0.40;0.30;;;;;;;;;;5095478;28;20170;-67
2021/10/08 08:29:19;;;;;;;0.40;0.33;;;;;;;;;;5113891;28;20203;-67
2021/10/08 08:31:45;;;;;;;0.40;0.40;;;;;;;;;;5113672;28;20443;-67
2021/10/08 08:34:11;;;;;;;0.40;0.40;;;;;;;;;;5113060;28;20672;-67
2021/10/08 08:36:37;;;;;;;0.40;0.40;;;;;;;;;;5113672;28;20489;-68
2021/10/08 08:39:07;;;;;;;0.40;0.40;;;;;;;;;;5112959;28;20407;-67
2021/10/08 08:41:34;;;;;;;0.40;0.40;;;;;;;;;;5095154;28;20222;-68
2021/10/08 08:44:01;;;;;;;0.32;0.30;;;;;;;;;;5113666;28;20403;-67
2021/10/08 08:46:27;;;;;;;0.30;0.30;;;;;;;;;;5113532;28;20185;-67
2021/10/08 08:48:53;;;;;;;0.40;0.40;;;;;;;;;;5113558;28;20384;-68
2021/10/08 08:51:20;;;;;;;0.40;0.40;;;;;;;;;;5094768;28;20648;-68
2021/10/08 08:53:47;;;;;;;0.40;0.40;;;;;;;;;;5113539;28;20380;-68
2021/10/08 08:56:13;;;;;;;0.30;0.30;;;;;;;;;;5113193;28;20215;-67
2021/10/08 08:58:39;;;;;;;0.30;0.30;;;;;;;;;;5113349;28;20170;-67
2021/10/08 09:01:05;;;;;;;0.30;0.30;;;;;;;;;;5113135;28;20407;-68
2021/10/08 09:03:31;;;;;;;0.30;0.30;;;;;;;;;;5113224;28;20395;-67
2021/10/08 09:05:57;;;;;;;0.30;0.30;;;;;;;;;;5112865;28;20419;-67
2021/10/08 09:08:33;;;;;;;0.37;0.37;;;;;;;;;;5113246;28;20430;-67
2021/10/08 09:10:59;;;;;;;0.30;0.30;;;;;;;;;;5113104;28;20407;-68
2021/10/08 09:13:27;;;;;;;0.33;0.33;;;;;;;;;;5113053;28;20382;-66
2021/10/08 09:15:55;;;;;;;0.30;0.30;;;;;;;;;;5112802;28;20483;-66
2021/10/08 09:18:22;;;;;;;0.30;0.30;;;;;;;;;;5112861;28;20280;-68
2021/10/08 09:21:07;;;;;;;0.30;0.30;;;;;;;;;;5094120;28;20180;-68
2021/10/08 09:23:34;;;;;;;0.30;0.30;;;;;;;;;;5112814;28;20174;-68
2021/10/08 09:26:01;;;;;;;0.30;0.30;;;;;;;;;;5112800;28;20775;-68
2021/10/08 09:28:27;;;;;;;0.30;0.30;;;;;;;;;;5112837;28;20536;-68
2021/10/08 09:30:54;;;;;;;0.30;0.30;;;;;;;;;;5112117;28;20413;-68
2021/10/08 09:33:20;;;;;;;0.30;0.30;;;;;;;;;;5094493;28;20185;-65
2021/10/08 09:35:49;;;;;;;0.30;0.30;;;;;;;;;;5093922;28;20462;-66
2021/10/08 09:38:16;;;;;;;0.30;0.30;;;;;;;;;;5112634;28;20944;-66
2021/10/08 09:40:46;;;;;;;0.30;0.30;;;;;;;;;;5112309;28;20462;-66
2021/10/08 09:43:13;;;;;;;0.30;0.30;;;;;;;;;;5112676;28;20172;-66
2021/10/08 09:45:52;;;;;;;0.40;0.40;;;;;;;;;;5105703;28;20195;-66
2021/10/08 09:48:22;;;;;;;0.30;0.30;;;;;;;;;;5092273;28;20884;-66
2021/10/08 09:51:07;;;;;;;0.30;0.30;;;;;;;;;;5091969;28;20396;-66
2021/10/08 09:53:34;;;;;;;0.30;0.30;;;;;;;;;;5091879;28;20403;-68
2021/10/08 09:56:01;;;;;;;0.30;0.30;;;;;;;;;;5073619;28;20466;-66
2021/10/08 09:58:27;;;;;;;0.30;0.30;;;;;;;;;;5091932;28;20748;-66
2021/10/08 10:00:57;;;;;;;0.30;0.30;;;;;;;;;;5091583;28;20405;-65
2021/10/08 10:03:24;;;;;;;0.30;0.30;;;;;;;;;;5091877;28;20172;-66
2021/10/08 10:05:50;;;;;;;0.30;0.30;;;;;;;;;;5091697;28;20420;-66
2021/10/08 10:08:16;;;;;;;0.40;0.40;;;;;;;;;;5091934;28;20171;-66
2021/10/08 10:10:44;;;;;;;0.40;0.40;;;;;;;;;;5091530;28;20403;-66
2021/10/08 10:13:11;;;;;;;0.30;0.30;;;;;;;;;;5091689;28;20952;-66
2021/10/08 10:15:39;;;;;;;0.30;0.30;;;;;;;;;;5091391;28;20462;-66
2021/10/08 10:18:05;;;;;;;0.30;0.30;;;;;;;;;;5091729;28;20194;-66
2021/10/08 10:20:34;;;;;;;0.30;0.30;;;;;;;;;;5091387;28;20738;-66
2021/10/08 10:23:00;;;;;;;0.30;0.30;;;;;;;;;;5091648;28;20381;-66
2021/10/08 10:25:26;;;;;;;0.30;0.30;;;;;;;;;;5091532;28;20197;-66
2021/10/08 10:27:52;;;;;;;0.30;0.30;;;;;;;;;;5091571;28;20180;-66
2021/10/08 10:30:19;;;;;;;0.30;0.30;;;;;;;;;;5091506;28;20871;-66
2021/10/08 10:32:46;;;;;;;0.30;0.30;;;;;;;;;;5091536;28;20414;-66
2021/10/08 10:35:31;;;;;;;0.30;0.30;;;;;;;;;;5091262;28;20944;-66
2021/10/08 10:37:57;;;;;;;0.30;0.30;;;;;;;;;;5073378;28;20410;-66
2021/10/08 10:40:24;;;;;;;0.30;0.30;;;;;;;;;;5091237;28;20396;-66
2021/10/08 10:43:08;;;;;;;0.30;0.30;;;;;;;;;;5091362;28;20948;-66
2021/10/08 10:45:34;;;;;;;0.30;0.30;;;;;;;;;;5091292;28;20420;-66
2021/10/08 10:48:27;;;;;;;0.30;0.30;;;;;;;;;;5073245;28;20842;-66
2021/10/08 10:51:20;;;;;;;0.30;0.30;;;;;;;;;;5091256;28;20438;-68
2021/10/08 10:53:49;;;;;;;0.30;0.30;;;;;;;;;;5091395;28;20401;-66
2021/10/08 10:56:34;;;;;;;0.30;0.30;;;;;;;;;;5091252;28;20464;-67
2021/10/08 10:59:19;;;;;;;0.30;0.30;;;;;;;;;;5091304;28;20406;-67
2021/10/08 11:02:09;;;;;;;0.30;0.30;;;;;;;;;;5091001;28;20494;-67
2021/10/08 11:04:39;;;;;;;0.30;0.30;;;;;;;;;;5091148;28;20485;-67
2021/10/08 11:07:16;;;;;;;0.30;0.30;;;;;;;;;;5091323;28;20407;-67
2021/10/08 11:09:43;;;;;;;0.30;0.30;;;;;;;;;;5091628;28;20418;-67
2021/10/08 11:12:28;;;;;;;0.30;0.30;;;;;;;;;;5111066;28;20382;-67
2021/10/08 11:15:13;;;;;;;0.30;0.30;;;;;;;;;;5111228;28;20436;-67
2021/10/08 11:17:55;;;;;;;0.30;0.30;;;;;;;;;;5111393;28;20435;-67
2021/10/08 11:20:30;;;;;;;0.30;0.30;;;;;;;;;;5092929;28;20502;-67
2021/10/08 11:22:57;;;;;;;0.30;0.30;;;;;;;;;;5111443;28;20394;-67
2021/10/08 11:25:23;;;;;;;0.30;0.30;;;;;;;;;;5111272;28;20506;-67
2021/10/08 11:27:50;;;;;;;0.30;0.30;;;;;;;;;;5112550;28;20418;-67
2021/10/08 11:30:16;;;;;;;0.30;0.30;;;;;;;;;;5114711;28;20422;-67
2021/10/08 11:32:46;;;;;;;0.30;0.30;;;;;;;;;;5115141;28;20390;-67
2021/10/08 11:35:18;;;;;;;0.30;0.30;;;;;;;;;;5114908;28;20467;-67
2021/10/08 11:37:44;;;;;;;0.30;0.30;;;;;;;;;;5115149;28;20898;-67
2021/10/08 11:40:13;;;;;;;0.30;0.30;;;;;;;;;;5122878;22;20490;-66
2021/10/08 11:42:42;;;;;;;0.30;0.30;;;;;;;;;;5094661;28;20407;-65
2021/10/08 11:45:13;;;;;;;0.30;0.30;;;;;;;;;;5094595;28;20170;-65
2021/10/08 11:52:43;;;;;;;0.30;0.30;;;;;;;;;;5094550;28;20941;-66
2021/10/08 11:55:15;;;;;;;0.30;0.30;;;;;;;;;;5094391;28;20452;-66
2021/10/08 11:58:00;;;;;;;0.30;0.27;;;;;;;;;;5076169;28;20478;-66
2021/10/08 12:00:27;;;;;;;0.30;0.30;;;;;;;;;;5093048;28;20431;-66
2021/10/08 12:03:01;;;;;;;0.30;0.30;;;;;;;;;;5075770;28;20419;-66
2021/10/08 12:05:27;;;;;;;0.30;0.30;;;;;;;;;;5094395;28;20392;-66
2021/10/08 12:08:03;;;;;;;0.30;0.30;;;;;;;;;;5094118;28;20567;-65
2021/10/08 12:10:29;;;;;;;0.30;0.30;;;;;;;;;;5094168;28;20401;-66
2021/10/08 12:12:56;;;;;;;0.30;0.30;;;;;;;;;;5094226;28;20409;-65
2021/10/08 12:15:26;;;;;;;0.30;0.30;;;;;;;;;;5094210;28;20456;-66
2021/10/08 12:17:54;;;;;;;0.30;0.30;;;;;;;;;;5094104;28;20408;-65
2021/10/08 12:20:27;;;;;;;0.30;0.30;;;;;;;;;;5094089;28;20435;-65
2021/10/08 12:23:12;;;;;;;0.30;0.30;;;;;;;;;;5094238;28;20383;-66
2021/10/08 12:25:38;;;;;;;0.30;0.30;;;;;;;;;;5093991;28;20196;-66
2021/10/08 12:28:04;;;;;;;0.30;0.30;;;;;;;;;;5094162;28;20405;-66
2021/10/08 12:30:30;;;;;;;0.30;0.30;;;;;;;;;;5093573;28;20680;-65
2021/10/08 12:33:04;;;;;;;0.30;0.30;;;;;;;;;;5093570;28;20422;-65
2021/10/08 12:35:30;;;;;;;0.30;0.30;;;;;;;;;;5093802;28;20462;-67
2021/10/08 12:38:01;;;;;;;0.30;0.30;;;;;;;;;;5094287;28;20420;-67
2021/10/08 12:40:27;;;;;;;0.30;0.30;;;;;;;;;;5092468;28;20214;-67
2021/10/08 12:42:59;;;;;;;0.30;0.30;;;;;;;;;;5094149;28;20456;-65
2021/10/08 12:45:37;;;;;;;0.30;0.30;;;;;;;;;;5093880;28;20371;-66
2021/10/08 12:48:04;;;;;;;0.30;0.30;;;;;;;;;;5093761;28;20820;-67
2021/10/08 12:50:33;;;;;;;0.30;0.30;;;;;;;;;;5093254;28;20488;-67
2021/10/08 12:52:59;;;;;;;0.30;0.30;;;;;;;;;;5093414;28;20163;-67
2021/10/08 12:55:25;;;;;;;0.30;0.30;;;;;;;;;;5093343;28;20484;-67
2021/10/08 12:57:59;;;;;;;0.30;0.30;;;;;;;;;;5093584;28;20408;-66
2021/10/08 13:00:43;;;;;;;0.30;0.30;;;;;;;;;;5093337;28;20428;-66
2021/10/08 13:03:26;;;;;;;0.30;0.30;;;;;;;;;;5093674;28;20428;-67
2021/10/08 13:05:54;;;;;;;0.30;0.30;;;;;;;;;;5093532;28;20375;-67
2021/10/08 13:08:20;;;;;;;0.30;0.30;;;;;;;;;;5093435;28;20892;-67
2021/10/08 13:10:55;;;;;;;0.30;0.30;;;;;;;;;;5071842;28;20425;-67
2021/10/08 13:13:25;;;;;;;0.30;0.30;;;;;;;;;;5072909;28;20364;-66
2021/10/08 13:15:51;;;;;;;0.30;0.30;;;;;;;;;;5072934;28;21059;-67
2021/10/08 13:18:18;;;;;;;0.30;0.30;;;;;;;;;;5072598;28;20713;-66
2021/10/08 13:20:45;;;;;;;0.30;0.30;;;;;;;;;;5072550;28;20809;-66
2021/10/08 13:23:12;;;;;;;0.30;0.30;;;;;;;;;;5073759;28;20430;-67
2021/10/08 13:25:42;;;;;;;0.30;0.30;;;;;;;;;;5073834;28;20376;-66
2021/10/08 13:28:09;;;;;;;0.30;0.30;;;;;;;;;;5073372;28;20876;-66
2021/10/08 13:30:34;;;;;;;0.30;0.30;;;;;;;;;;5072246;28;20433;-66
2021/10/08 13:33:01;;;;;;;0.30;0.30;;;;;;;;;;5072814;28;20856;-67
2021/10/08 13:35:27;;;;;;;0.30;0.30;;;;;;;;;;5072337;28;20454;-66
2021/10/08 13:37:53;;;;;;;0.30;0.30;;;;;;;;;;5073014;28;20414;-66
2021/10/08 13:40:20;;;;;;;0.30;0.30;;;;;;;;;;5074148;28;20804;-66
2021/10/08 13:42:46;;;;;;;0.30;0.30;;;;;;;;;;5072837;28;20479;-66
2021/10/08 13:45:13;;;;;;;0.30;0.30;;;;;;;;;;5072183;28;20924;-66
2021/10/08 13:47:39;;;;;;;0.30;0.30;;;;;;;;;;5054693;28;20453;-66
2021/10/08 13:50:05;;;;;;;0.30;0.30;;;;;;;;;;5071912;28;20444;-66
2021/10/08 13:52:31;;;;;;;0.30;0.30;;;;;;;;;;5071805;28;20779;-66
2021/10/08 13:54:57;;;;;;;0.30;0.30;;;;;;;;;;5072368;28;20537;-66
2021/10/08 13:57:23;;;;;;;0.30;0.30;;;;;;;;;;5072294;28;20475;-66
2021/10/08 13:59:49;;;;;;;0.30;0.30;;;;;;;;;;5084014;28;20437;-66
2021/10/08 14:02:25;;;;;;;0.30;0.30;;;;;;;;;;5091907;28;20404;-66
2021/10/08 14:04:55;;;;;;;0.30;0.30;;;;;;;;;;5092458;28;20387;-66
2021/10/08 14:07:36;;;;;;;0.30;0.30;;;;;;;;;;5092309;28;20170;-66
2021/10/08 14:10:20;;;;;;;0.30;0.30;;;;;;;;;;5092065;28;20194;-65
2021/10/08 14:12:48;;;;;;;0.30;0.30;;;;;;;;;;5074137;28;20442;-66
2021/10/08 14:15:14;;;;;;;0.30;0.30;;;;;;;;;;5092128;28;21029;-67
2021/10/08 14:17:40;;;;;;;0.30;0.30;;;;;;;;;;5092485;28;20453;-67
2021/10/08 14:20:06;;;;;;;0.30;0.30;;;;;;;;;;5092498;28;20394;-67
2021/10/08 14:22:33;;;;;;;0.30;0.30;;;;;;;;;;5092222;28;20436;-66
2021/10/08 14:25:01;;;;;;;0.30;0.30;;;;;;;;;;5091889;28;20404;-66
2021/10/08 14:27:27;;;;;;;0.30;0.30;;;;;;;;;;5092091;28;20934;-67
2021/10/08 14:29:53;;;;;;;0.30;0.30;;;;;;;;;;5091661;28;20432;-66
2021/10/08 14:32:19;;;;;;;0.30;0.30;;;;;;;;;;5091650;28;20419;-66
2021/10/08 14:34:45;;;;;;;0.30;0.30;;;;;;;;;;5091930;28;20456;-67
2021/10/08 14:37:11;;;;;;;0.30;0.30;;;;;;;;;;5091817;28;20402;-67
2021/10/08 14:39:37;;;;;;;0.30;0.30;;;;;;;;;;5073683;28;20422;-67
2021/10/08 14:42:02;;;;;;;0.30;0.30;;;;;;;;;;5091785;28;20466;-66
2021/10/08 14:44:28;;;;;;;0.30;0.30;;;;;;;;;;5092016;28;20457;-67
2021/10/08 14:46:54;;;;;;;0.30;0.30;;;;;;;;;;5091756;28;20483;-67
2021/10/08 14:49:20;;;;;;;0.30;0.30;;;;;;;;;;5091430;28;20890;-67
2021/10/08 14:51:47;;;;;;;0.30;0.30;;;;;;;;;;5090796;28;20405;-67
2021/10/08 14:59:07;;;;;;;0.30;0.30;;;;;;;;;;5091431;28;20776;-66